Pagina principale
METAR-TAF:

METAR-TAF

Aeroporti :

Aeroporto di Milano-Linate

Milano, Italia

latitudine: 45-26N, longitudine: 009-17E, altezza: 107 m

Osservazione

Il bollettino è stato emesso 19 minuti fa, alle 02:20 UTC
Vento 6 kt da ovest/nord-ovest, variando fra ovest e nord/nord-ovest
Temperature 11°C
Umidità 76%
Pressione 1019 hPa
Visibilità 10 km o più
nessuna nube inferiore a 1500 m e nessun cumulonembo

METAR: LIML 240220Z 30006KT 270V330 CAVOK 11/07 Q1019 NOSIG

Ora: 03:39 (02:39 UTC)

Previsione

Il bollettino è stato emesso 3 ore e 39 minuti fa, alle 23:00 UTC
Previsione valida dal 24 alle 00 UTC al 24 alle 24 UTC
Vento 5 kt da ovest
Visibilità: 8000 m
Temporaneamente
dal 24 alle 02 UTC al 24 alle 07 UTC
Visibilità: 1200 m
banchi di nebbia

TAF: LIML 232300Z 2400/2424 26005KT 8000 NSC TEMPO 2402/2407 1200 BCFG

Osservazioni e previsioni meteorologiche di più di 4000 aeroporti (messaggi METAR e TAF).

Le stazioni disponibili sono rappresentate dai dischi gialli e rossi sulla carta.

Puntare il mouse per vedere il nome della stazione.

Clicca sopra per visualizzare le osservazioni e previsioni meteorologiche.

Per cambiare la mappa : fare clic sui pulsanti verdi con una croce nera per ingrandire, il pulsante verde con un trattino per diminuire, o sulla freccia verde per le mappe adiacenti.


METAR-TAF: